< < Back
Terminal Aerodrome Forecast


Current Version              Previous Versions:   1  2  3  4  5  6  7  8  9  

Terminal Aerodrome Forecast

742
FTUS44 KBMX 281846 AAA
TAFBHM
TAF AMD
KBHM 281846Z 2819/2918 09005KT P6SM SCT045 SCT120 BKN250
     FM282000 07005KT P6SM VCSH BKN045 BKN120 OVC250
     FM282300 05006KT 6SM -RA BR BKN025 OVC100
     FM290200 07006KT 4SM -RA BR OVC015=



Latest METAR

565
SAUS70 KWBC 282000
MTRBHM
METAR KBHM 281953Z 18005KT 10SM FEW060 BKN110 OVC250 22/12 A2986 RMK AO2
SLP107 T02170117


USA.gov is the U.S. government's official web portal to all federal, state and local government web resources and services.